sensor_id;sensor_type;location;lat;lon;timestamp;P1;durP1;ratioP1;P2;durP2;ratioP2
58621;SDS011;44389;51.578;5.456;2022-09-21T00:00:46;20.17;;;13.05;;
58621;SDS011;44389;51.578;5.456;2022-09-21T00:03:13;18.42;;;11.75;;
58621;SDS011;44389;51.578;5.456;2022-09-21T00:05:39;21.27;;;12.88;;
58621;SDS011;44389;51.578;5.456;2022-09-21T00:08:05;20.58;;;12.57;;
58621;SDS011;44389;51.578;5.456;2022-09-21T00:10:31;21.25;;;13.00;;
58621;SDS011;44389;51.578;5.456;2022-09-21T00:12:58;18.00;;;11.55;;
58621;SDS011;44389;51.578;5.456;2022-09-21T00:15:24;15.05;;;9.75;;
58621;SDS011;44389;51.578;5.456;2022-09-21T00:17:54;15.93;;;10.43;;
58621;SDS011;44389;51.578;5.456;2022-09-21T00:20:21;16.15;;;10.50;;
58621;SDS011;44389;51.578;5.456;2022-09-21T00:22:48;16.33;;;11.20;;
58621;SDS011;44389;51.578;5.456;2022-09-21T00:25:14;21.23;;;12.35;;
58621;SDS011;44389;51.578;5.456;2022-09-21T00:27:39;18.13;;;11.80;;
58621;SDS011;44389;51.578;5.456;2022-09-21T00:30:05;15.77;;;11.27;;
58621;SDS011;44389;51.578;5.456;2022-09-21T00:32:32;21.38;;;11.68;;
58621;SDS011;44389;51.578;5.456;2022-09-21T00:34:59;23.52;;;12.38;;
58621;SDS011;44389;51.578;5.456;2022-09-21T00:37:26;19.08;;;13.65;;
58621;SDS011;44389;51.578;5.456;2022-09-21T00:39:51;25.77;;;14.23;;
58621;SDS011;44389;51.578;5.456;2022-09-21T00:42:19;18.30;;;12.50;;
58621;SDS011;44389;51.578;5.456;2022-09-21T00:44:47;21.95;;;13.20;;
58621;SDS011;44389;51.578;5.456;2022-09-21T00:47:16;20.33;;;13.32;;
58621;SDS011;44389;51.578;5.456;2022-09-21T00:49:47;20.00;;;13.68;;
58621;SDS011;44389;51.578;5.456;2022-09-21T00:52:15;20.02;;;12.70;;
58621;SDS011;44389;51.578;5.456;2022-09-21T00:54:44;18.75;;;13.38;;
58621;SDS011;44389;51.578;5.456;2022-09-21T00:57:13;22.02;;;14.35;;
58621;SDS011;44389;51.578;5.456;2022-09-21T00:59:40;25.15;;;14.07;;
58621;SDS011;44389;51.578;5.456;2022-09-21T01:02:09;27.55;;;14.48;;
58621;SDS011;44389;51.578;5.456;2022-09-21T01:04:35;21.15;;;13.27;;
58621;SDS011;44389;51.578;5.456;2022-09-21T01:07:03;25.33;;;13.13;;
58621;SDS011;44389;51.578;5.456;2022-09-21T01:09:31;23.73;;;14.05;;
58621;SDS011;44389;51.578;5.456;2022-09-21T01:12:08;21.58;;;13.63;;
58621;SDS011;44389;51.578;5.456;2022-09-21T01:20:38;17.45;;;12.18;;
58621;SDS011;44389;51.578;5.456;2022-09-21T01:23:33;18.48;;;12.30;;
58621;SDS011;44389;51.578;5.456;2022-09-21T01:37:36;18.88;;;12.77;;
58621;SDS011;44389;51.578;5.456;2022-09-21T01:40:11;19.98;;;13.88;;
58621;SDS011;44389;51.578;5.456;2022-09-21T01:42:43;17.48;;;11.77;;
58621;SDS011;44389;51.578;5.456;2022-09-21T01:45:12;19.92;;;12.57;;
58621;SDS011;44389;51.578;5.456;2022-09-21T01:47:41;18.85;;;12.05;;
58621;SDS011;44389;51.578;5.456;2022-09-21T01:50:10;20.45;;;11.85;;
58621;SDS011;44389;51.578;5.456;2022-09-21T01:55:41;18.60;;;12.32;;
58621;SDS011;44389;51.578;5.456;2022-09-21T01:58:18;19.05;;;11.85;;
58621;SDS011;44389;51.578;5.456;2022-09-21T02:00:52;16.70;;;11.38;;
58621;SDS011;44389;51.578;5.456;2022-09-21T02:05:56;18.83;;;10.50;;
58621;SDS011;44389;51.578;5.456;2022-09-21T02:08:23;16.08;;;11.50;;
58621;SDS011;44389;51.578;5.456;2022-09-21T02:10:53;21.15;;;12.50;;
58621;SDS011;44389;51.578;5.456;2022-09-21T02:13:19;16.77;;;12.13;;
58621;SDS011;44389;51.578;5.456;2022-09-21T02:20:49;16.80;;;11.60;;
58621;SDS011;44389;51.578;5.456;2022-09-21T02:23:22;17.98;;;12.13;;
58621;SDS011;44389;51.578;5.456;2022-09-21T02:25:53;18.67;;;12.88;;
58621;SDS011;44389;51.578;5.456;2022-09-21T02:28:25;20.23;;;13.30;;
58621;SDS011;44389;51.578;5.456;2022-09-21T02:30:55;20.90;;;13.35;;
58621;SDS011;44389;51.578;5.456;2022-09-21T02:33:30;19.83;;;12.10;;
58621;SDS011;44389;51.578;5.456;2022-09-21T02:36:06;18.60;;;12.25;;
58621;SDS011;44389;51.578;5.456;2022-09-21T02:38:41;16.80;;;11.43;;
58621;SDS011;44389;51.578;5.456;2022-09-21T02:41:18;19.08;;;12.07;;
58621;SDS011;44389;51.578;5.456;2022-09-21T02:44:08;16.40;;;11.63;;
58621;SDS011;44389;51.578;5.456;2022-09-21T02:46:43;18.55;;;11.65;;
58621;SDS011;44389;51.578;5.456;2022-09-21T02:49:18;19.45;;;12.40;;
58621;SDS011;44389;51.578;5.456;2022-09-21T02:51:50;16.17;;;10.80;;
58621;SDS011;44389;51.578;5.456;2022-09-21T02:54:22;20.17;;;11.18;;
58621;SDS011;44389;51.578;5.456;2022-09-21T02:56:50;19.98;;;12.57;;
58621;SDS011;44389;51.578;5.456;2022-09-21T02:59:18;17.50;;;11.13;;
58621;SDS011;44389;51.578;5.456;2022-09-21T03:01:47;20.25;;;12.00;;
58621;SDS011;44389;51.578;5.456;2022-09-21T03:04:13;21.45;;;13.18;;
58621;SDS011;44389;51.578;5.456;2022-09-21T03:06:40;17.70;;;12.75;;
58621;SDS011;44389;51.578;5.456;2022-09-21T03:09:05;26.58;;;13.45;;
58621;SDS011;44389;51.578;5.456;2022-09-21T03:11:31;20.20;;;13.57;;
58621;SDS011;44389;51.578;5.456;2022-09-21T03:13:56;15.30;;;11.93;;
58621;SDS011;44389;51.578;5.456;2022-09-21T03:16:22;13.88;;;10.70;;
58621;SDS011;44389;51.578;5.456;2022-09-21T03:18:49;20.30;;;10.98;;
58621;SDS011;44389;51.578;5.456;2022-09-21T03:21:14;11.88;;;9.35;;
58621;SDS011;44389;51.578;5.456;2022-09-21T03:23:39;17.95;;;10.38;;
58621;SDS011;44389;51.578;5.456;2022-09-21T03:26:05;13.65;;;10.23;;
58621;SDS011;44389;51.578;5.456;2022-09-21T03:28:30;13.98;;;10.07;;
58621;SDS011;44389;51.578;5.456;2022-09-21T03:30:55;13.48;;;10.43;;
58621;SDS011;44389;51.578;5.456;2022-09-21T03:33:21;16.08;;;12.75;;
58621;SDS011;44389;51.578;5.456;2022-09-21T03:35:49;19.75;;;11.23;;
58621;SDS011;44389;51.578;5.456;2022-09-21T03:38:15;16.13;;;10.32;;
58621;SDS011;44389;51.578;5.456;2022-09-21T03:40:46;14.75;;;10.15;;
58621;SDS011;44389;51.578;5.456;2022-09-21T03:43:13;15.32;;;10.25;;
58621;SDS011;44389;51.578;5.456;2022-09-21T03:45:39;16.52;;;11.20;;
58621;SDS011;44389;51.578;5.456;2022-09-21T03:48:06;14.82;;;11.00;;
58621;SDS011;44389;51.578;5.456;2022-09-21T03:50:31;18.50;;;11.73;;
58621;SDS011;44389;51.578;5.456;2022-09-21T03:52:57;14.88;;;10.95;;
58621;SDS011;44389;51.578;5.456;2022-09-21T03:55:22;15.63;;;10.23;;
58621;SDS011;44389;51.578;5.456;2022-09-21T03:57:48;15.00;;;11.25;;
58621;SDS011;44389;51.578;5.456;2022-09-21T04:00:14;14.30;;;12.02;;
58621;SDS011;44389;51.578;5.456;2022-09-21T04:02:39;14.63;;;11.07;;
58621;SDS011;44389;51.578;5.456;2022-09-21T04:05:06;15.98;;;11.20;;
58621;SDS011;44389;51.578;5.456;2022-09-21T04:07:33;14.52;;;11.38;;
58621;SDS011;44389;51.578;5.456;2022-09-21T04:09:59;15.43;;;11.18;;
58621;SDS011;44389;51.578;5.456;2022-09-21T04:12:30;15.80;;;11.25;;
58621;SDS011;44389;51.578;5.456;2022-09-21T04:14:56;17.00;;;13.70;;
58621;SDS011;44389;51.578;5.456;2022-09-21T04:17:22;23.60;;;13.93;;
58621;SDS011;44389;51.578;5.456;2022-09-21T04:19:47;17.90;;;12.68;;
58621;SDS011;44389;51.578;5.456;2022-09-21T04:22:13;22.42;;;14.77;;
58621;SDS011;44389;51.578;5.456;2022-09-21T04:24:38;19.85;;;15.05;;
58621;SDS011;44389;51.578;5.456;2022-09-21T04:27:05;22.10;;;16.45;;
58621;SDS011;44389;51.578;5.456;2022-09-21T04:29:33;20.75;;;14.75;;
58621;SDS011;44389;51.578;5.456;2022-09-21T04:31:59;19.70;;;15.05;;
58621;SDS011;44389;51.578;5.456;2022-09-21T04:34:25;15.60;;;12.45;;
58621;SDS011;44389;51.578;5.456;2022-09-21T04:36:50;14.55;;;11.23;;
58621;SDS011;44389;51.578;5.456;2022-09-21T04:39:17;19.57;;;13.10;;
58621;SDS011;44389;51.578;5.456;2022-09-21T04:41:42;26.13;;;15.13;;
58621;SDS011;44389;51.578;5.456;2022-09-21T04:44:08;18.80;;;14.15;;
58621;SDS011;44389;51.578;5.456;2022-09-21T04:46:33;15.15;;;12.45;;
58621;SDS011;44389;51.578;5.456;2022-09-21T04:48:58;15.30;;;12.38;;
58621;SDS011;44389;51.578;5.456;2022-09-21T04:51:24;16.00;;;12.52;;
58621;SDS011;44389;51.578;5.456;2022-09-21T04:53:49;16.33;;;12.30;;
58621;SDS011;44389;51.578;5.456;2022-09-21T04:56:15;15.70;;;11.48;;
58621;SDS011;44389;51.578;5.456;2022-09-21T04:58:41;13.27;;;11.48;;
58621;SDS011;44389;51.578;5.456;2022-09-21T05:01:07;18.02;;;11.90;;
58621;SDS011;44389;51.578;5.456;2022-09-21T05:03:32;17.05;;;11.25;;
58621;SDS011;44389;51.578;5.456;2022-09-21T05:05:58;17.73;;;11.40;;
58621;SDS011;44389;51.578;5.456;2022-09-21T05:08:24;20.85;;;12.75;;
58621;SDS011;44389;51.578;5.456;2022-09-21T05:11:10;15.52;;;11.05;;
58621;SDS011;44389;51.578;5.456;2022-09-21T05:13:40;12.57;;;8.93;;
58621;SDS011;44389;51.578;5.456;2022-09-21T05:16:07;12.93;;;8.55;;
58621;SDS011;44389;51.578;5.456;2022-09-21T05:18:33;15.82;;;9.00;;
58621;SDS011;44389;51.578;5.456;2022-09-21T05:20:59;12.07;;;7.90;;
58621;SDS011;44389;51.578;5.456;2022-09-21T05:23:25;11.23;;;8.68;;
58621;SDS011;44389;51.578;5.456;2022-09-21T05:25:53;12.30;;;8.88;;
58621;SDS011;44389;51.578;5.456;2022-09-21T05:28:19;13.20;;;8.57;;
58621;SDS011;44389;51.578;5.456;2022-09-21T05:30:47;10.90;;;7.78;;
58621;SDS011;44389;51.578;5.456;2022-09-21T05:33:33;12.65;;;8.40;;
58621;SDS011;44389;51.578;5.456;2022-09-21T05:38:42;16.42;;;9.60;;
58621;SDS011;44389;51.578;5.456;2022-09-21T05:41:07;11.95;;;8.93;;
58621;SDS011;44389;51.578;5.456;2022-09-21T05:43:33;12.85;;;9.23;;
58621;SDS011;44389;51.578;5.456;2022-09-21T05:46:02;13.02;;;9.15;;
58621;SDS011;44389;51.578;5.456;2022-09-21T05:48:37;17.95;;;10.07;;
58621;SDS011;44389;51.578;5.456;2022-09-21T05:51:16;12.65;;;10.32;;
58621;SDS011;44389;51.578;5.456;2022-09-21T05:59:49;20.23;;;14.25;;
58621;SDS011;44389;51.578;5.456;2022-09-21T06:02:40;17.50;;;13.52;;
58621;SDS011;44389;51.578;5.456;2022-09-21T06:05:10;16.70;;;12.85;;
58621;SDS011;44389;51.578;5.456;2022-09-21T06:07:38;15.38;;;12.52;;
58621;SDS011;44389;51.578;5.456;2022-09-21T06:10:03;18.25;;;13.73;;
58621;SDS011;44389;51.578;5.456;2022-09-21T06:12:29;17.65;;;14.30;;
58621;SDS011;44389;51.578;5.456;2022-09-21T06:14:54;18.60;;;15.10;;
58621;SDS011;44389;51.578;5.456;2022-09-21T06:17:20;25.05;;;18.20;;
58621;SDS011;44389;51.578;5.456;2022-09-21T06:19:46;25.25;;;19.58;;
58621;SDS011;44389;51.578;5.456;2022-09-21T06:22:11;24.08;;;19.55;;
58621;SDS011;44389;51.578;5.456;2022-09-21T06:24:36;26.80;;;19.60;;
58621;SDS011;44389;51.578;5.456;2022-09-21T06:27:02;32.90;;;24.70;;
58621;SDS011;44389;51.578;5.456;2022-09-21T06:29:27;29.58;;;23.05;;
58621;SDS011;44389;51.578;5.456;2022-09-21T06:31:52;35.65;;;25.15;;
58621;SDS011;44389;51.578;5.456;2022-09-21T06:34:17;30.92;;;24.63;;
58621;SDS011;44389;51.578;5.456;2022-09-21T06:36:43;33.20;;;24.60;;
58621;SDS011;44389;51.578;5.456;2022-09-21T06:39:09;31.27;;;23.20;;
58621;SDS011;44389;51.578;5.456;2022-09-21T06:41:35;33.67;;;24.48;;
58621;SDS011;44389;51.578;5.456;2022-09-21T06:44:00;33.13;;;23.80;;
58621;SDS011;44389;51.578;5.456;2022-09-21T06:46:26;41.10;;;25.90;;
58621;SDS011;44389;51.578;5.456;2022-09-21T06:48:51;48.22;;;32.15;;
58621;SDS011;44389;51.578;5.456;2022-09-21T06:51:17;53.53;;;33.10;;
58621;SDS011;44389;51.578;5.456;2022-09-21T06:53:44;46.17;;;32.88;;
58621;SDS011;44389;51.578;5.456;2022-09-21T06:56:10;42.38;;;31.65;;
58621;SDS011;44389;51.578;5.456;2022-09-21T06:58:36;34.50;;;27.50;;
58621;SDS011;44389;51.578;5.456;2022-09-21T07:01:09;39.15;;;26.90;;
58621;SDS011;44389;51.578;5.456;2022-09-21T07:03:36;39.00;;;26.80;;
58621;SDS011;44389;51.578;5.456;2022-09-21T07:06:02;36.28;;;23.48;;
58621;SDS011;44389;51.578;5.456;2022-09-21T07:08:27;34.53;;;21.55;;
58621;SDS011;44389;51.578;5.456;2022-09-21T07:10:56;31.42;;;21.63;;
58621;SDS011;44389;51.578;5.456;2022-09-21T07:13:22;30.05;;;18.13;;
58621;SDS011;44389;51.578;5.456;2022-09-21T07:15:47;22.55;;;15.65;;
58621;SDS011;44389;51.578;5.456;2022-09-21T07:18:13;21.85;;;15.38;;
58621;SDS011;44389;51.578;5.456;2022-09-21T07:20:39;25.75;;;16.23;;
58621;SDS011;44389;51.578;5.456;2022-09-21T07:23:11;26.17;;;16.75;;
58621;SDS011;44389;51.578;5.456;2022-09-21T07:25:41;28.73;;;15.10;;
58621;SDS011;44389;51.578;5.456;2022-09-21T07:28:08;20.33;;;13.63;;
58621;SDS011;44389;51.578;5.456;2022-09-21T07:30:34;18.98;;;12.43;;
58621;SDS011;44389;51.578;5.456;2022-09-21T07:33:00;22.13;;;12.80;;
58621;SDS011;44389;51.578;5.456;2022-09-21T07:35:26;21.02;;;13.32;;
58621;SDS011;44389;51.578;5.456;2022-09-21T07:37:51;20.05;;;12.88;;
58621;SDS011;44389;51.578;5.456;2022-09-21T07:40:16;19.77;;;12.98;;
58621;SDS011;44389;51.578;5.456;2022-09-21T07:42:42;19.92;;;13.02;;
58621;SDS011;44389;51.578;5.456;2022-09-21T07:45:09;23.02;;;12.48;;
58621;SDS011;44389;51.578;5.456;2022-09-21T07:47:34;21.33;;;12.05;;
58621;SDS011;44389;51.578;5.456;2022-09-21T07:50:00;28.38;;;12.00;;
58621;SDS011;44389;51.578;5.456;2022-09-21T07:52:26;21.90;;;11.00;;
58621;SDS011;44389;51.578;5.456;2022-09-21T07:54:51;17.35;;;10.85;;
58621;SDS011;44389;51.578;5.456;2022-09-21T07:57:16;15.23;;;10.20;;
58621;SDS011;44389;51.578;5.456;2022-09-21T08:00:00;19.20;;;9.57;;
58621;SDS011;44389;51.578;5.456;2022-09-21T08:02:25;15.70;;;11.05;;
58621;SDS011;44389;51.578;5.456;2022-09-21T08:04:51;17.58;;;9.85;;
58621;SDS011;44389;51.578;5.456;2022-09-21T08:07:17;17.73;;;9.45;;
58621;SDS011;44389;51.578;5.456;2022-09-21T08:09:43;18.40;;;9.52;;
58621;SDS011;44389;51.578;5.456;2022-09-21T08:12:09;15.05;;;9.45;;
58621;SDS011;44389;51.578;5.456;2022-09-21T08:14:35;13.25;;;8.35;;
58621;SDS011;44389;51.578;5.456;2022-09-21T08:17:00;15.38;;;8.32;;
58621;SDS011;44389;51.578;5.456;2022-09-21T08:19:26;15.73;;;7.35;;
58621;SDS011;44389;51.578;5.456;2022-09-21T08:21:52;18.77;;;8.18;;
58621;SDS011;44389;51.578;5.456;2022-09-21T08:24:17;13.85;;;7.32;;
58621;SDS011;44389;51.578;5.456;2022-09-21T08:26:43;15.43;;;6.97;;
58621;SDS011;44389;51.578;5.456;2022-09-21T08:29:09;16.80;;;7.15;;
58621;SDS011;44389;51.578;5.456;2022-09-21T08:31:34;13.55;;;6.35;;
58621;SDS011;44389;51.578;5.456;2022-09-21T08:33:59;14.13;;;6.45;;
58621;SDS011;44389;51.578;5.456;2022-09-21T08:36:25;12.30;;;5.97;;
58621;SDS011;44389;51.578;5.456;2022-09-21T08:38:51;12.55;;;4.72;;
58621;SDS011;44389;51.578;5.456;2022-09-21T08:41:17;13.90;;;4.80;;
58621;SDS011;44389;51.578;5.456;2022-09-21T08:43:44;14.15;;;4.97;;
58621;SDS011;44389;51.578;5.456;2022-09-21T08:46:15;9.70;;;4.07;;
58621;SDS011;44389;51.578;5.456;2022-09-21T08:48:45;13.90;;;3.83;;
58621;SDS011;44389;51.578;5.456;2022-09-21T08:51:19;12.48;;;5.00;;
58621;SDS011;44389;51.578;5.456;2022-09-21T08:53:49;11.98;;;4.50;;
58621;SDS011;44389;51.578;5.456;2022-09-21T08:56:21;11.70;;;4.70;;
58621;SDS011;44389;51.578;5.456;2022-09-21T08:58:47;15.52;;;4.57;;
58621;SDS011;44389;51.578;5.456;2022-09-21T09:03:52;12.80;;;4.35;;
58621;SDS011;44389;51.578;5.456;2022-09-21T09:12:43;12.25;;;4.50;;
58621;SDS011;44389;51.578;5.456;2022-09-21T09:17:56;11.15;;;4.40;;
58621;SDS011;44389;51.578;5.456;2022-09-21T09:20:36;12.27;;;3.70;;
58621;SDS011;44389;51.578;5.456;2022-09-21T09:24:01;9.48;;;3.50;;
58621;SDS011;44389;51.578;5.456;2022-09-21T09:26:13;8.82;;;2.42;;
58621;SDS011;44389;51.578;5.456;2022-09-21T09:28:53;7.70;;;2.13;;
58621;SDS011;44389;51.578;5.456;2022-09-21T09:31:24;8.50;;;2.53;;
58621;SDS011;44389;51.578;5.456;2022-09-21T09:34:08;9.27;;;2.78;;
58621;SDS011;44389;51.578;5.456;2022-09-21T09:36:58;7.95;;;2.47;;
58621;SDS011;44389;51.578;5.456;2022-09-21T09:39:29;12.05;;;2.92;;
58621;SDS011;44389;51.578;5.456;2022-09-21T09:47:27;10.05;;;2.60;;
58621;SDS011;44389;51.578;5.456;2022-09-21T09:52:39;7.63;;;2.03;;
58621;SDS011;44389;51.578;5.456;2022-09-21T09:55:13;7.68;;;2.40;;
58621;SDS011;44389;51.578;5.456;2022-09-21T09:57:44;8.95;;;2.38;;
58621;SDS011;44389;51.578;5.456;2022-09-21T10:00:12;12.00;;;2.60;;
58621;SDS011;44389;51.578;5.456;2022-09-21T10:02:49;11.25;;;2.17;;
58621;SDS011;44389;51.578;5.456;2022-09-21T10:07:58;8.20;;;2.10;;
58621;SDS011;44389;51.578;5.456;2022-09-21T10:12:52;8.90;;;2.15;;
58621;SDS011;44389;51.578;5.456;2022-09-21T10:15:18;8.35;;;2.15;;
58621;SDS011;44389;51.578;5.456;2022-09-21T10:17:47;7.80;;;2.25;;
58621;SDS011;44389;51.578;5.456;2022-09-21T10:20:21;12.23;;;2.40;;
58621;SDS011;44389;51.578;5.456;2022-09-21T10:22:47;7.70;;;1.80;;
58621;SDS011;44389;51.578;5.456;2022-09-21T10:25:18;7.80;;;2.20;;
58621;SDS011;44389;51.578;5.456;2022-09-21T10:27:48;6.53;;;2.10;;
58621;SDS011;44389;51.578;5.456;2022-09-21T10:30:34;8.23;;;1.83;;
58621;SDS011;44389;51.578;5.456;2022-09-21T10:33:16;7.88;;;1.73;;
58621;SDS011;44389;51.578;5.456;2022-09-21T10:35:48;10.35;;;2.28;;
58621;SDS011;44389;51.578;5.456;2022-09-21T10:38:18;9.50;;;2.05;;
58621;SDS011;44389;51.578;5.456;2022-09-21T10:40:45;6.75;;;1.73;;
58621;SDS011;44389;51.578;5.456;2022-09-21T10:46:09;8.00;;;1.55;;
58621;SDS011;44389;51.578;5.456;2022-09-21T10:48:36;8.52;;;1.48;;
58621;SDS011;44389;51.578;5.456;2022-09-21T10:51:02;5.78;;;1.73;;
58621;SDS011;44389;51.578;5.456;2022-09-21T10:55:58;9.43;;;1.90;;
58621;SDS011;44389;51.578;5.456;2022-09-21T10:58:29;6.22;;;1.33;;
58621;SDS011;44389;51.578;5.456;2022-09-21T11:01:09;5.45;;;1.40;;
58621;SDS011;44389;51.578;5.456;2022-09-21T11:03:46;7.90;;;1.40;;
58621;SDS011;44389;51.578;5.456;2022-09-21T11:06:42;9.20;;;1.70;;
58621;SDS011;44389;51.578;5.456;2022-09-21T11:09:12;5.53;;;1.13;;
58621;SDS011;44389;51.578;5.456;2022-09-21T11:11:54;4.57;;;1.00;;
58621;SDS011;44389;51.578;5.456;2022-09-21T11:14:46;9.68;;;1.90;;
58621;SDS011;44389;51.578;5.456;2022-09-21T11:17:25;6.22;;;1.50;;
58621;SDS011;44389;51.578;5.456;2022-09-21T11:22:49;7.95;;;2.03;;
58621;SDS011;44389;51.578;5.456;2022-09-21T11:25:24;11.80;;;2.58;;
58621;SDS011;44389;51.578;5.456;2022-09-21T11:27:58;9.65;;;1.60;;
58621;SDS011;44389;51.578;5.456;2022-09-21T11:36:15;5.88;;;1.63;;
58621;SDS011;44389;51.578;5.456;2022-09-21T11:39:10;8.00;;;1.98;;
58621;SDS011;44389;51.578;5.456;2022-09-21T11:45:01;7.38;;;1.55;;
58621;SDS011;44389;51.578;5.456;2022-09-21T11:56:49;8.20;;;1.30;;
58621;SDS011;44389;51.578;5.456;2022-09-21T11:59:29;9.20;;;1.60;;
58621;SDS011;44389;51.578;5.456;2022-09-21T12:05:08;9.23;;;1.50;;
58621;SDS011;44389;51.578;5.456;2022-09-21T12:10:36;6.78;;;1.30;;
58621;SDS011;44389;51.578;5.456;2022-09-21T12:15:38;7.93;;;1.50;;
58621;SDS011;44389;51.578;5.456;2022-09-21T12:21:18;7.35;;;1.80;;
58621;SDS011;44389;51.578;5.456;2022-09-21T12:23:51;7.03;;;1.88;;
58621;SDS011;44389;51.578;5.456;2022-09-21T12:26:21;10.00;;;1.77;;
58621;SDS011;44389;51.578;5.456;2022-09-21T12:28:51;8.95;;;1.73;;
58621;SDS011;44389;51.578;5.456;2022-09-21T12:31:26;11.60;;;1.75;;
58621;SDS011;44389;51.578;5.456;2022-09-21T12:34:14;6.05;;;1.63;;
58621;SDS011;44389;51.578;5.456;2022-09-21T12:36:45;13.13;;;2.10;;
58621;SDS011;44389;51.578;5.456;2022-09-21T12:39:22;7.35;;;1.67;;
58621;SDS011;44389;51.578;5.456;2022-09-21T12:41:58;8.50;;;1.75;;
58621;SDS011;44389;51.578;5.456;2022-09-21T12:47:02;10.95;;;1.73;;
58621;SDS011;44389;51.578;5.456;2022-09-21T12:49:55;6.22;;;1.45;;
58621;SDS011;44389;51.578;5.456;2022-09-21T12:52:26;6.40;;;1.55;;
58621;SDS011;44389;51.578;5.456;2022-09-21T12:54:55;7.10;;;1.42;;
58621;SDS011;44389;51.578;5.456;2022-09-21T12:57:33;5.72;;;1.48;;
58621;SDS011;44389;51.578;5.456;2022-09-21T13:00:21;7.20;;;1.60;;
58621;SDS011;44389;51.578;5.456;2022-09-21T13:05:39;8.05;;;1.55;;
58621;SDS011;44389;51.578;5.456;2022-09-21T13:08:15;6.22;;;1.50;;
58621;SDS011;44389;51.578;5.456;2022-09-21T13:15:47;6.70;;;1.85;;
58621;SDS011;44389;51.578;5.456;2022-09-21T13:18:23;9.90;;;2.30;;
58621;SDS011;44389;51.578;5.456;2022-09-21T13:21:12;7.75;;;1.65;;
58621;SDS011;44389;51.578;5.456;2022-09-21T13:23:49;8.88;;;1.92;;
58621;SDS011;44389;51.578;5.456;2022-09-21T13:31:55;6.05;;;1.70;;
58621;SDS011;44389;51.578;5.456;2022-09-21T13:34:36;8.05;;;1.90;;
58621;SDS011;44389;51.578;5.456;2022-09-21T13:40:29;11.70;;;2.03;;
58621;SDS011;44389;51.578;5.456;2022-09-21T13:44:54;8.23;;;1.97;;
58621;SDS011;44389;51.578;5.456;2022-09-21T13:49:55;10.60;;;2.70;;
58621;SDS011;44389;51.578;5.456;2022-09-21T13:52:23;13.18;;;2.42;;
58621;SDS011;44389;51.578;5.456;2022-09-21T13:54:54;10.77;;;2.65;;
58621;SDS011;44389;51.578;5.456;2022-09-21T14:13:22;10.70;;;3.20;;
58621;SDS011;44389;51.578;5.456;2022-09-21T14:15:51;10.23;;;3.17;;
58621;SDS011;44389;51.578;5.456;2022-09-21T14:18:21;8.13;;;2.90;;
58621;SDS011;44389;51.578;5.456;2022-09-21T14:21:07;12.10;;;3.30;;
58621;SDS011;44389;51.578;5.456;2022-09-21T14:26:31;9.43;;;3.53;;
58621;SDS011;44389;51.578;5.456;2022-09-21T14:29:04;11.00;;;3.95;;
58621;SDS011;44389;51.578;5.456;2022-09-21T14:31:44;13.85;;;4.13;;
58621;SDS011;44389;51.578;5.456;2022-09-21T14:34:14;11.38;;;4.18;;
58621;SDS011;44389;51.578;5.456;2022-09-21T14:36:47;11.95;;;4.15;;
58621;SDS011;44389;51.578;5.456;2022-09-21T14:39:18;12.20;;;4.40;;
58621;SDS011;44389;51.578;5.456;2022-09-21T14:41:48;12.15;;;3.83;;
58621;SDS011;44389;51.578;5.456;2022-09-21T14:44:21;14.98;;;4.63;;
58621;SDS011;44389;51.578;5.456;2022-09-21T14:47:02;13.95;;;4.90;;
58621;SDS011;44389;51.578;5.456;2022-09-21T14:52:26;17.10;;;5.75;;
58621;SDS011;44389;51.578;5.456;2022-09-21T15:00:34;11.90;;;5.32;;
58621;SDS011;44389;51.578;5.456;2022-09-21T15:12:22;19.25;;;7.28;;
58621;SDS011;44389;51.578;5.456;2022-09-21T15:15:03;16.65;;;7.20;;
58621;SDS011;44389;51.578;5.456;2022-09-21T15:17:35;15.23;;;5.95;;
58621;SDS011;44389;51.578;5.456;2022-09-21T15:20:13;17.75;;;6.18;;
58621;SDS011;44389;51.578;5.456;2022-09-21T15:22:41;17.00;;;5.95;;
58621;SDS011;44389;51.578;5.456;2022-09-21T15:25:10;15.38;;;6.85;;
58621;SDS011;44389;51.578;5.456;2022-09-21T15:27:37;12.27;;;5.53;;
58621;SDS011;44389;51.578;5.456;2022-09-21T15:30:17;14.38;;;6.38;;
58621;SDS011;44389;51.578;5.456;2022-09-21T15:32:47;12.68;;;6.47;;
58621;SDS011;44389;51.578;5.456;2022-09-21T15:35:21;13.93;;;7.00;;
58621;SDS011;44389;51.578;5.456;2022-09-21T15:37:49;17.52;;;7.78;;
58621;SDS011;44389;51.578;5.456;2022-09-21T15:40:16;18.00;;;7.45;;
58621;SDS011;44389;51.578;5.456;2022-09-21T15:42:59;16.88;;;7.85;;
58621;SDS011;44389;51.578;5.456;2022-09-21T15:48:11;17.05;;;8.23;;
58621;SDS011;44389;51.578;5.456;2022-09-21T15:50:37;13.82;;;9.07;;
58621;SDS011;44389;51.578;5.456;2022-09-21T15:53:07;21.50;;;9.35;;
58621;SDS011;44389;51.578;5.456;2022-09-21T15:55:44;16.92;;;9.25;;
58621;SDS011;44389;51.578;5.456;2022-09-21T15:58:20;21.40;;;9.32;;
58621;SDS011;44389;51.578;5.456;2022-09-21T16:00:52;15.57;;;9.05;;
58621;SDS011;44389;51.578;5.456;2022-09-21T16:03:20;18.73;;;10.40;;
58621;SDS011;44389;51.578;5.456;2022-09-21T16:11:32;21.20;;;10.10;;
58621;SDS011;44389;51.578;5.456;2022-09-21T16:22:37;23.30;;;11.73;;
58621;SDS011;44389;51.578;5.456;2022-09-21T16:27:51;22.75;;;11.82;;
58621;SDS011;44389;51.578;5.456;2022-09-21T16:38:41;22.23;;;11.15;;
58621;SDS011;44389;51.578;5.456;2022-09-21T16:41:07;22.27;;;11.88;;
58621;SDS011;44389;51.578;5.456;2022-09-21T16:43:33;17.83;;;10.60;;
58621;SDS011;44389;51.578;5.456;2022-09-21T16:45:59;24.65;;;12.10;;
58621;SDS011;44389;51.578;5.456;2022-09-21T16:50:52;19.35;;;9.88;;
58621;SDS011;44389;51.578;5.456;2022-09-21T16:53:18;26.08;;;12.00;;
58621;SDS011;44389;51.578;5.456;2022-09-21T16:55:47;19.52;;;11.38;;
58621;SDS011;44389;51.578;5.456;2022-09-21T16:58:12;29.75;;;13.05;;
58621;SDS011;44389;51.578;5.456;2022-09-21T17:00:39;21.08;;;12.13;;
58621;SDS011;44389;51.578;5.456;2022-09-21T17:05:31;23.35;;;14.48;;
58621;SDS011;44389;51.578;5.456;2022-09-21T17:07:57;32.03;;;15.80;;
58621;SDS011;44389;51.578;5.456;2022-09-21T17:10:23;31.95;;;17.13;;
58621;SDS011;44389;51.578;5.456;2022-09-21T17:12:53;26.30;;;16.25;;
58621;SDS011;44389;51.578;5.456;2022-09-21T17:15:19;31.77;;;17.58;;
58621;SDS011;44389;51.578;5.456;2022-09-21T17:17:46;29.85;;;18.27;;
58621;SDS011;44389;51.578;5.456;2022-09-21T17:20:14;31.08;;;19.73;;
58621;SDS011;44389;51.578;5.456;2022-09-21T17:22:44;38.90;;;21.08;;
58621;SDS011;44389;51.578;5.456;2022-09-21T17:25:09;43.67;;;23.85;;
58621;SDS011;44389;51.578;5.456;2022-09-21T17:27:35;37.40;;;22.17;;
58621;SDS011;44389;51.578;5.456;2022-09-21T17:30:00;35.70;;;24.48;;
58621;SDS011;44389;51.578;5.456;2022-09-21T17:32:27;29.77;;;18.90;;
58621;SDS011;44389;51.578;5.456;2022-09-21T17:37:36;29.33;;;20.40;;
58621;SDS011;44389;51.578;5.456;2022-09-21T17:40:02;33.65;;;22.20;;
58621;SDS011;44389;51.578;5.456;2022-09-21T17:42:28;35.00;;;23.75;;
58621;SDS011;44389;51.578;5.456;2022-09-21T17:45:08;38.55;;;24.92;;
58621;SDS011;44389;51.578;5.456;2022-09-21T17:47:45;44.42;;;27.33;;
58621;SDS011;44389;51.578;5.456;2022-09-21T17:52:36;41.33;;;25.87;;
58621;SDS011;44389;51.578;5.456;2022-09-21T17:55:20;42.38;;;27.20;;
58621;SDS011;44389;51.578;5.456;2022-09-21T18:03:26;36.28;;;25.90;;
58621;SDS011;44389;51.578;5.456;2022-09-21T18:05:53;42.58;;;28.90;;
58621;SDS011;44389;51.578;5.456;2022-09-21T18:08:23;39.80;;;29.35;;